createdAt,value
2018-12-16T00:01:03.432Z,2.14
2018-12-16T00:03:32.228Z,2.11
2018-12-16T00:08:37.476Z,2.08
2018-12-16T00:11:06.823Z,2.24
2018-12-16T00:13:36.088Z,2.15
2018-12-16T00:16:06.638Z,2.08
2018-12-16T00:18:35.849Z,2.23
2018-12-16T00:21:05.037Z,2.23
2018-12-16T00:23:35.465Z,2.17
2018-12-16T00:26:05.356Z,2.15
2018-12-16T00:28:34.420Z,1.98
2018-12-16T00:31:04.841Z,2.13
2018-12-16T00:33:33.885Z,2.16
2018-12-16T00:36:03.891Z,2.12
2018-12-16T00:38:33.653Z,2.05
2018-12-16T00:41:02.520Z,2.05
2018-12-16T00:43:31.858Z,2.09
2018-12-16T00:46:01.792Z,1.96
2018-12-16T00:48:31.173Z,1.96
2018-12-16T00:51:06.162Z,1.94
2018-12-16T00:53:35.282Z,1.92
2018-12-16T00:56:06.654Z,2.01
2018-12-16T00:58:37.682Z,2.04
2018-12-16T01:01:07.056Z,2.02
2018-12-16T01:03:35.915Z,2.06
2018-12-16T01:06:12.269Z,2.03
2018-12-16T01:08:41.210Z,2.19
2018-12-16T01:11:10.521Z,2.00
2018-12-16T01:13:40.859Z,1.94
2018-12-16T01:16:09.729Z,1.97
2018-12-16T01:18:38.605Z,1.98
2018-12-16T01:21:07.778Z,2.02
2018-12-16T01:23:36.606Z,2.04
2018-12-16T01:26:06.067Z,2.04
2018-12-16T01:28:35.159Z,2.06
2018-12-16T01:31:04.037Z,2.02
2018-12-16T01:33:32.858Z,2.12
2018-12-16T01:36:03.635Z,2.13
2018-12-16T01:38:32.429Z,2.12
2018-12-16T01:41:01.247Z,2.07
2018-12-16T01:43:30.367Z,2.14
2018-12-16T01:45:59.169Z,2.13
2018-12-16T01:48:29.928Z,2.14
2018-12-16T01:50:59.047Z,2.23
2018-12-16T01:53:27.854Z,2.22
2018-12-16T01:55:56.651Z,2.23
2018-12-16T01:58:25.774Z,2.16
2018-12-16T02:00:54.603Z,2.14
2018-12-16T02:03:28.045Z,2.12
2018-12-16T02:05:57.175Z,2.19
2018-12-16T02:08:26.233Z,2.40
2018-12-16T02:10:55.095Z,2.22
2018-12-16T02:13:34.297Z,2.18
2018-12-16T02:16:03.830Z,2.33
2018-12-16T02:18:32.650Z,2.25
2018-12-16T02:21:08.032Z,2.16
2018-12-16T02:23:37.095Z,2.08
2018-12-16T02:26:05.962Z,2.28
2018-12-16T02:31:14.665Z,2.26
2018-12-16T02:33:46.460Z,2.19
2018-12-16T02:36:15.238Z,2.16
2018-12-16T02:38:44.316Z,2.31
2018-12-16T02:41:13.093Z,2.26
2018-12-16T02:43:45.030Z,2.18
2018-12-16T02:46:14.147Z,2.15
2018-12-16T02:48:44.487Z,2.15
2018-12-16T02:51:13.340Z,2.25
2018-12-16T02:53:42.422Z,2.28
2018-12-16T02:56:11.541Z,2.31
2018-12-16T02:58:40.456Z,2.29
2018-12-16T03:01:10.955Z,2.20
2018-12-16T03:03:40.202Z,2.21
2018-12-16T03:06:09.025Z,2.22
2018-12-16T03:08:38.180Z,2.30
2018-12-16T03:11:10.546Z,2.23
2018-12-16T03:13:39.444Z,2.23
2018-12-16T03:16:08.514Z,2.49
2018-12-16T03:18:37.364Z,2.62
2018-12-16T03:21:11.212Z,2.59
2018-12-16T03:23:40.442Z,2.54
2018-12-16T03:26:09.226Z,2.32
2018-12-16T03:28:38.029Z,2.42
2018-12-16T03:31:07.133Z,2.35
2018-12-16T03:33:35.968Z,2.37
2018-12-16T03:36:05.381Z,2.37
2018-12-16T03:38:34.441Z,2.36
2018-12-16T03:41:03.306Z,2.31
2018-12-16T03:43:36.630Z,2.41
2018-12-16T03:46:06.552Z,2.37
2018-12-16T03:48:41.045Z,2.42
2018-12-16T03:51:10.123Z,2.41
2018-12-16T03:53:42.088Z,2.46
2018-12-16T03:56:10.870Z,2.43
2018-12-16T03:59:17.215Z,2.49
2018-12-16T04:01:57.390Z,2.44
2018-12-16T04:04:26.995Z,2.40
2018-12-16T04:06:56.165Z,2.35
2018-12-16T04:09:24.958Z,2.21
2018-12-16T04:11:53.784Z,2.20
2018-12-16T04:14:23.248Z,2.10
2018-12-16T04:16:52.414Z,2.03
2018-12-16T04:19:26.134Z,1.95
2018-12-16T04:21:55.232Z,1.96
2018-12-16T04:24:24.039Z,1.82
2018-12-16T04:26:54.531Z,1.80
2018-12-16T04:29:23.399Z,1.78
2018-12-16T04:31:53.189Z,1.79
2018-12-16T04:34:21.983Z,1.76
2018-12-16T04:36:50.807Z,1.71
2018-12-16T04:39:20.148Z,1.83
2018-12-16T04:41:51.883Z,1.69
2018-12-16T04:44:20.663Z,1.67
2018-12-16T04:46:49.469Z,1.76
2018-12-16T04:49:18.285Z,2.00
2018-12-16T04:51:47.359Z,1.71
2018-12-16T04:54:16.214Z,1.61
2018-12-16T04:56:52.148Z,1.81
2018-12-16T04:59:21.230Z,1.71
2018-12-16T05:01:50.019Z,1.66
2018-12-16T05:06:54.383Z,1.47
2018-12-16T05:09:23.217Z,1.46
2018-12-16T05:11:52.009Z,1.42
2018-12-16T05:16:54.519Z,1.31
2018-12-16T05:19:23.686Z,1.30
2018-12-16T05:21:52.499Z,1.33
2018-12-16T05:24:21.272Z,1.38
2018-12-16T05:26:51.011Z,1.33
2018-12-16T05:29:19.771Z,1.37
2018-12-16T05:31:48.551Z,1.62
2018-12-16T05:34:17.687Z,1.71
2018-12-16T05:36:46.496Z,1.54
2018-12-16T05:39:20.374Z,1.41
2018-12-16T05:41:49.472Z,1.29
2018-12-16T05:44:18.308Z,1.32
2018-12-16T05:46:47.145Z,1.34
2018-12-16T05:49:16.402Z,1.30
2018-12-16T05:51:48.715Z,1.37
2018-12-16T05:54:17.543Z,1.33
2018-12-16T05:56:46.359Z,1.34
2018-12-16T05:59:15.179Z,1.32
2018-12-16T06:01:44.280Z,1.63
2018-12-16T06:04:13.100Z,1.54
2018-12-16T06:06:41.882Z,1.38
2018-12-16T06:09:11.252Z,1.46
2018-12-16T06:11:40.091Z,1.52
2018-12-16T06:14:08.922Z,1.48
2018-12-16T06:16:38.778Z,1.39
2018-12-16T06:19:07.582Z,1.31
2018-12-16T06:21:36.450Z,1.29
2018-12-16T06:24:06.546Z,1.29
2018-12-16T06:26:35.364Z,1.24
2018-12-16T06:29:04.139Z,1.25
2018-12-16T06:31:33.335Z,1.25
2018-12-16T06:34:04.292Z,1.27
2018-12-16T06:36:33.103Z,1.32
2018-12-16T06:39:02.344Z,1.30
2018-12-16T06:41:31.116Z,1.30
2018-12-16T06:43:59.899Z,1.28
2018-12-16T06:46:29.061Z,1.37
2018-12-16T06:48:57.960Z,1.37
2018-12-16T06:51:27.790Z,1.35
2018-12-16T06:54:02.142Z,1.38
2018-12-16T06:56:27.380Z,1.29
2018-12-16T06:58:56.447Z,1.48
2018-12-16T07:01:25.214Z,1.31
2018-12-16T07:03:53.984Z,1.22
2018-12-16T07:06:25.848Z,1.18
2018-12-16T07:08:54.717Z,1.16
2018-12-16T07:11:23.691Z,1.20
2018-12-16T07:13:52.794Z,1.23
2018-12-16T07:16:21.681Z,1.24
2018-12-16T07:18:50.913Z,1.39
2018-12-16T07:21:20.622Z,1.34
2018-12-16T07:23:49.431Z,1.32
2018-12-16T07:26:18.283Z,1.39
2018-12-16T07:28:47.459Z,1.42
2018-12-16T07:31:16.317Z,1.41
2018-12-16T07:33:45.145Z,1.57
2018-12-16T07:36:14.315Z,1.34
2018-12-16T07:38:43.280Z,1.33
2018-12-16T07:41:12.156Z,1.42
2018-12-16T07:43:41.302Z,1.43
2018-12-16T07:46:10.189Z,1.52
2018-12-16T07:48:39.195Z,1.55
2018-12-16T07:51:08.301Z,1.60
2018-12-16T07:53:42.892Z,1.59
2018-12-16T07:56:11.765Z,1.56
2018-12-16T07:58:40.901Z,1.66
2018-12-16T08:01:12.388Z,1.49
2018-12-16T08:03:41.203Z,1.46
2018-12-16T08:06:10.330Z,1.47
2018-12-16T08:08:39.493Z,1.53
2018-12-16T08:11:08.706Z,1.54
2018-12-16T08:13:38.111Z,1.54
2018-12-16T08:18:46.549Z,1.54
2018-12-16T08:21:15.545Z,1.53
2018-12-16T08:23:44.484Z,1.58
2018-12-16T08:26:13.682Z,1.63
2018-12-16T08:28:42.488Z,1.60
2018-12-16T08:31:11.254Z,1.65
2018-12-16T08:33:40.505Z,1.67
2018-12-16T08:36:10.487Z,1.75
2018-12-16T08:38:39.576Z,1.94
2018-12-16T08:41:13.576Z,1.82
2018-12-16T08:43:43.420Z,1.80
2018-12-16T08:46:12.619Z,1.90
2018-12-16T08:48:42.203Z,1.93
2018-12-16T08:51:21.987Z,1.95
2018-12-16T08:53:50.943Z,1.85
2018-12-16T08:56:20.313Z,1.89
2018-12-16T08:58:49.648Z,1.73
2018-12-16T09:01:18.598Z,1.68
2018-12-16T09:03:49.102Z,1.64
2018-12-16T09:06:17.976Z,1.72
2018-12-16T09:08:47.210Z,1.94
2018-12-16T09:11:23.521Z,1.91
2018-12-16T09:13:52.316Z,1.83
2018-12-16T09:16:27.371Z,2.02
2018-12-16T09:18:56.449Z,1.99
2018-12-16T09:21:26.701Z,2.01
2018-12-16T09:23:55.545Z,1.99
2018-12-16T09:26:24.426Z,2.16
2018-12-16T09:28:55.349Z,2.12
2018-12-16T09:31:24.459Z,1.70
2018-12-16T09:33:53.408Z,1.75
2018-12-16T09:36:22.220Z,1.88
2018-12-16T09:38:51.710Z,1.83
2018-12-16T09:41:20.549Z,1.97
2018-12-16T09:43:50.013Z,1.99
2018-12-16T09:46:18.954Z,1.91
2018-12-16T09:48:52.690Z,1.88
2018-12-16T09:51:26.460Z,2.21
2018-12-16T09:53:59.595Z,1.98
2018-12-16T09:56:28.920Z,2.01
2018-12-16T09:58:57.836Z,2.00
2018-12-16T10:01:26.821Z,1.99
2018-12-16T10:03:56.142Z,2.07
2018-12-16T10:09:00.301Z,2.26
2018-12-16T10:11:29.429Z,2.19
2018-12-16T10:13:58.294Z,2.11
2018-12-16T10:16:27.354Z,2.17
2018-12-16T10:18:56.458Z,2.20
2018-12-16T10:21:25.359Z,2.27
2018-12-16T10:23:54.194Z,2.24
2018-12-16T10:26:23.432Z,2.30
2018-12-16T10:28:52.946Z,2.36
2018-12-16T10:31:21.859Z,2.38
2018-12-16T10:33:51.050Z,2.30
2018-12-16T10:36:22.630Z,2.25
2018-12-16T10:38:51.511Z,2.48
2018-12-16T10:41:20.773Z,2.53
2018-12-16T10:43:49.583Z,2.55
2018-12-16T10:46:18.512Z,2.52
2018-12-16T10:48:47.685Z,2.50
2018-12-16T10:51:16.570Z,2.46
2018-12-16T10:53:45.354Z,2.50
2018-12-16T10:56:14.579Z,2.46
2018-12-16T10:58:43.403Z,2.40
2018-12-16T11:01:17.587Z,2.40
2018-12-16T11:03:46.875Z,2.38
2018-12-16T11:06:15.757Z,2.46
2018-12-16T11:08:51.055Z,2.50
2018-12-16T11:11:20.428Z,2.54
2018-12-16T11:13:49.464Z,2.39
2018-12-16T11:16:18.875Z,2.38
2018-12-16T11:18:51.791Z,2.38
2018-12-16T11:21:20.709Z,2.61
2018-12-16T11:23:55.694Z,2.81
2018-12-16T11:26:25.044Z,2.46
2018-12-16T11:28:54.801Z,2.50
2018-12-16T11:31:24.015Z,2.36
2018-12-16T11:33:58.842Z,2.36
2018-12-16T11:36:27.806Z,2.39
2018-12-16T11:38:57.241Z,2.43
2018-12-16T11:41:26.289Z,2.53
2018-12-16T11:43:55.154Z,2.48
2018-12-16T11:46:24.829Z,2.76
2018-12-16T11:48:59.788Z,2.60
2018-12-16T11:57:05.865Z,2.96
2018-12-16T11:59:35.105Z,2.90
2018-12-16T12:02:05.120Z,2.97
2018-12-16T12:04:34.045Z,2.82
2018-12-16T12:07:03.681Z,2.84
2018-12-16T12:09:33.125Z,2.86
2018-12-16T12:14:37.899Z,2.89
2018-12-16T12:17:10.045Z,2.99
2018-12-16T12:19:41.500Z,3.07
2018-12-16T12:22:14.637Z,3.24
2018-12-16T12:24:44.235Z,3.47
2018-12-16T12:27:13.447Z,3.16
2018-12-16T12:29:48.711Z,3.14
2018-12-16T12:32:18.190Z,3.24
2018-12-16T12:34:47.513Z,3.17
2018-12-16T12:37:17.554Z,3.13
2018-12-16T12:39:57.859Z,3.10
2018-12-16T12:42:27.653Z,3.46
2018-12-16T12:45:02.991Z,3.11
2018-12-16T12:47:32.621Z,3.01
2018-12-16T12:50:04.912Z,3.04
2018-12-16T12:52:34.362Z,3.01
2018-12-16T12:55:04.296Z,3.09
2018-12-16T12:57:37.450Z,3.07
2018-12-16T13:00:10.496Z,3.04
2018-12-16T13:02:40.512Z,3.12
2018-12-16T13:05:10.032Z,3.19
2018-12-16T13:07:39.527Z,3.24
2018-12-16T13:10:11.007Z,3.21
2018-12-16T13:12:40.470Z,3.19
2018-12-16T13:15:13.620Z,3.19
2018-12-16T13:17:51.752Z,3.27
2018-12-16T13:20:21.494Z,3.23
2018-12-16T13:22:55.732Z,3.25
2018-12-16T13:25:36.089Z,3.23
2018-12-16T13:28:06.804Z,3.26
2018-12-16T13:30:39.466Z,3.28
2018-12-16T13:33:09.321Z,3.24
2018-12-16T13:35:38.667Z,3.28
2018-12-16T13:38:08.250Z,3.29
2018-12-16T13:40:37.842Z,3.31
2018-12-16T13:43:07.485Z,3.33
2018-12-16T13:45:38.145Z,3.24
2018-12-16T13:48:07.749Z,3.30
2018-12-16T13:50:37.423Z,3.20
2018-12-16T13:53:13.235Z,3.30
2018-12-16T13:55:42.816Z,3.28
2018-12-16T13:58:12.338Z,3.24
2018-12-16T14:00:42.404Z,3.24
2018-12-16T14:03:21.022Z,3.28
2018-12-16T14:05:50.999Z,3.27
2018-12-16T14:08:20.449Z,3.28
2018-12-16T14:10:50.693Z,3.20
2018-12-16T14:13:20.752Z,3.18
2018-12-16T14:15:52.562Z,3.26
2018-12-16T14:18:22.011Z,3.27
2018-12-16T14:21:01.081Z,3.25
2018-12-16T14:23:30.985Z,3.17
2018-12-16T14:26:00.489Z,3.24
2018-12-16T14:28:34.805Z,3.29
2018-12-16T14:31:04.626Z,3.24
2018-12-16T14:33:34.070Z,3.16
2018-12-16T14:36:05.169Z,3.22
2018-12-16T14:38:36.479Z,3.25
2018-12-16T14:41:06.031Z,3.16
2018-12-16T14:43:35.563Z,3.21
2018-12-16T14:46:06.006Z,3.18
2018-12-16T14:48:35.714Z,3.18
2018-12-16T14:51:05.241Z,3.19
2018-12-16T14:53:34.989Z,3.19
2018-12-16T14:56:06.125Z,3.17
2018-12-16T14:58:35.635Z,3.27
2018-12-16T15:01:09.157Z,3.30
2018-12-16T15:03:38.710Z,3.22
2018-12-16T15:06:08.306Z,3.22
2018-12-16T15:08:38.262Z,3.21
2018-12-16T15:11:08.070Z,3.24
2018-12-16T15:13:48.373Z,3.23
2018-12-16T15:16:18.232Z,3.24
2018-12-16T15:18:49.812Z,3.30
2018-12-16T15:21:19.967Z,3.30
2018-12-16T15:23:55.463Z,3.32
2018-12-16T15:26:24.909Z,3.35
2018-12-16T15:28:58.275Z,3.39
2018-12-16T15:31:28.152Z,3.37
2018-12-16T15:33:57.712Z,3.30
2018-12-16T15:36:31.159Z,3.33
2018-12-16T15:39:01.496Z,3.37
2018-12-16T15:41:30.995Z,3.41
2018-12-16T15:44:00.548Z,3.40
2018-12-16T15:46:31.422Z,3.44
2018-12-16T15:49:00.893Z,3.42
2018-12-16T15:51:30.476Z,3.40
2018-12-16T15:54:06.202Z,3.45
2018-12-16T15:56:35.815Z,3.53
2018-12-16T15:59:05.572Z,3.44
2018-12-16T16:01:35.485Z,3.45
2018-12-16T16:04:06.862Z,3.45
2018-12-16T16:06:36.379Z,3.45
2018-12-16T16:09:07.998Z,3.48
2018-12-16T16:11:38.529Z,3.50
2018-12-16T16:14:08.059Z,3.46
2018-12-16T16:16:37.966Z,3.49
2018-12-16T16:19:07.539Z,3.54
2018-12-16T16:21:37.104Z,3.68
2018-12-16T16:24:08.176Z,3.61
2018-12-16T16:26:37.808Z,3.73
2018-12-16T16:29:07.401Z,3.77
2018-12-16T16:31:37.294Z,3.74
2018-12-16T16:34:13.530Z,3.76
2018-12-16T16:36:42.956Z,3.66
2018-12-16T16:39:12.831Z,3.67
2018-12-16T16:41:42.643Z,3.66
2018-12-16T16:44:12.177Z,3.76
2018-12-16T16:46:42.660Z,3.80
2018-12-16T16:49:21.108Z,3.87
2018-12-16T16:51:50.706Z,3.76
2018-12-16T16:54:20.311Z,3.74
2018-12-16T16:56:49.896Z,3.72
2018-12-16T16:59:20.824Z,4.00
2018-12-16T17:01:50.991Z,3.84
2018-12-16T17:04:20.792Z,3.81
2018-12-16T17:06:50.764Z,3.72
2018-12-16T17:09:20.367Z,3.65
2018-12-16T17:11:50.310Z,3.71
2018-12-16T17:14:20.039Z,3.75
2018-12-16T17:16:49.471Z,3.72
2018-12-16T17:19:19.269Z,3.71
2018-12-16T17:21:49.195Z,3.73
2018-12-16T17:24:26.578Z,3.74
2018-12-16T17:26:56.299Z,3.74
2018-12-16T17:29:27.267Z,3.71
2018-12-16T17:31:56.815Z,3.71
2018-12-16T17:34:27.054Z,3.76
2018-12-16T17:36:56.722Z,3.78
2018-12-16T17:39:26.256Z,3.80
2018-12-16T17:45:08.459Z,3.72
2018-12-16T17:47:39.650Z,3.78
2018-12-16T17:50:10.061Z,3.83
2018-12-16T17:52:40.588Z,3.77
2018-12-16T17:55:10.197Z,3.78
2018-12-16T17:57:39.822Z,3.87
2018-12-16T18:00:14.567Z,3.95
2018-12-16T18:02:44.180Z,3.94
2018-12-16T18:05:15.631Z,4.01
2018-12-16T18:07:45.166Z,4.02
2018-12-16T18:10:14.760Z,4.04
2018-12-16T18:12:46.519Z,4.09
2018-12-16T18:15:16.144Z,4.12
2018-12-16T18:17:47.821Z,4.15
2018-12-16T18:20:17.685Z,4.18
2018-12-16T18:22:47.287Z,4.21
2018-12-16T18:25:16.919Z,4.19
2018-12-16T18:27:47.849Z,4.21
2018-12-16T18:30:20.081Z,4.18
2018-12-16T18:32:49.739Z,4.21
2018-12-16T18:35:19.743Z,4.23
2018-12-16T18:37:51.321Z,4.27
2018-12-16T18:40:22.341Z,4.21
2018-12-16T18:42:52.113Z,4.29
2018-12-16T18:45:21.642Z,4.31
2018-12-16T18:47:51.519Z,4.33
2018-12-16T18:50:21.059Z,4.31
2018-12-16T18:52:50.912Z,4.34
2018-12-16T18:55:21.048Z,4.34
2018-12-16T18:57:50.690Z,4.39
2018-12-16T19:00:20.313Z,4.35
2018-12-16T19:02:51.772Z,4.34
2018-12-16T19:05:24.442Z,4.32
2018-12-16T19:07:54.117Z,4.35
2018-12-16T19:10:24.008Z,4.37
2018-12-16T19:12:53.971Z,4.37
2018-12-16T19:15:23.744Z,4.34
2018-12-16T19:17:58.012Z,4.37
2018-12-16T19:20:28.691Z,4.37
2018-12-16T19:23:00.237Z,4.35
2018-12-16T19:25:31.149Z,4.37
2018-12-16T19:28:00.665Z,4.39
2018-12-16T19:30:30.147Z,4.45
2018-12-16T19:33:00.872Z,4.43
2018-12-16T19:35:30.460Z,4.44
2018-12-16T19:38:03.102Z,4.42
2018-12-16T19:40:33.039Z,4.49
2018-12-16T19:43:02.619Z,4.50
2018-12-16T19:45:32.130Z,4.52
2018-12-16T19:48:03.838Z,4.60
2018-12-16T19:50:37.644Z,4.62
2018-12-16T19:53:07.253Z,4.65
2018-12-16T19:55:36.776Z,4.70
2018-12-16T19:58:17.668Z,4.71
2018-12-16T20:00:47.725Z,4.70
2018-12-16T20:03:17.467Z,4.75
2018-12-16T20:05:52.059Z,4.74
2018-12-16T20:08:22.023Z,4.76
2018-12-16T20:10:51.912Z,4.75
2018-12-16T20:13:21.969Z,4.78
2018-12-16T20:15:51.853Z,4.79
2018-12-16T20:18:21.723Z,4.82
2018-12-16T20:20:54.520Z,4.85
2018-12-16T20:23:25.714Z,4.90
2018-12-16T20:25:56.419Z,4.92
2018-12-16T20:28:26.412Z,4.97
2018-12-16T20:30:56.796Z,4.98
2018-12-16T20:33:26.832Z,5.01
2018-12-16T20:36:04.249Z,5.01
2018-12-16T20:38:34.113Z,5.00
2018-12-16T20:41:03.747Z,5.04
2018-12-16T20:43:33.317Z,5.06
2018-12-16T20:46:04.176Z,5.07
2018-12-16T20:48:33.914Z,5.08
2018-12-16T20:51:03.541Z,5.12
2018-12-16T20:53:33.698Z,5.14
2018-12-16T20:56:04.080Z,5.15
2018-12-16T20:58:33.597Z,5.17
2018-12-16T21:01:04.846Z,5.20
2018-12-16T21:03:38.276Z,5.21
2018-12-16T21:06:07.927Z,5.21
2018-12-16T21:08:37.787Z,5.24
2018-12-16T21:11:12.393Z,5.29
2018-12-16T21:13:47.468Z,5.27
2018-12-16T21:16:22.129Z,5.29
2018-12-16T21:18:57.620Z,5.29
2018-12-16T21:21:27.368Z,5.31
2018-12-16T21:23:57.093Z,5.32
2018-12-16T21:26:27.964Z,5.33
2018-12-16T21:29:02.201Z,5.33
2018-12-16T21:31:32.081Z,5.40
2018-12-16T21:34:13.029Z,5.35
2018-12-16T21:36:43.205Z,5.34
2018-12-16T21:39:12.900Z,5.34
2018-12-16T21:41:44.779Z,5.36
2018-12-16T21:44:14.423Z,5.35
2018-12-16T21:46:44.101Z,5.38
2018-12-16T21:49:14.492Z,5.40
2018-12-16T21:51:44.507Z,5.41
2018-12-16T21:54:14.305Z,5.36
2018-12-16T21:56:44.305Z,5.37
2018-12-16T21:59:14.076Z,5.37
2018-12-16T22:01:43.806Z,5.39
2018-12-16T22:04:14.243Z,5.41
2018-12-16T22:06:44.597Z,5.44
2018-12-16T22:09:15.098Z,5.44
2018-12-16T22:11:45.248Z,5.46
2018-12-16T22:14:15.700Z,5.46
2018-12-16T22:16:47.837Z,5.43
2018-12-16T22:19:17.923Z,5.43
2018-12-16T22:22:13.951Z,5.42
2018-12-16T22:28:34.036Z,5.46
2018-12-16T22:31:07.641Z,5.49
2018-12-16T22:33:38.234Z,5.45
2018-12-16T22:36:07.790Z,5.43
2018-12-16T22:38:37.028Z,5.44
2018-12-16T22:41:06.969Z,5.47
2018-12-16T22:43:36.316Z,5.48
2018-12-16T22:46:06.443Z,5.47
2018-12-16T22:48:35.735Z,5.46
2018-12-16T22:51:06.762Z,5.45
2018-12-16T22:53:36.536Z,5.41
2018-12-16T22:56:07.037Z,5.43
2018-12-16T22:58:42.276Z,5.44
2018-12-16T23:01:18.402Z,5.39
2018-12-16T23:03:47.618Z,5.38
2018-12-16T23:06:17.000Z,5.37
2018-12-16T23:08:46.575Z,5.39
2018-12-16T23:11:16.046Z,5.32
2018-12-16T23:13:45.837Z,5.34
2018-12-16T23:16:25.695Z,5.33
2018-12-16T23:18:55.370Z,5.37
2018-12-16T23:21:24.957Z,5.28
2018-12-16T23:23:54.089Z,5.28
2018-12-16T23:26:27.626Z,5.29
2018-12-16T23:28:57.003Z,5.27
2018-12-16T23:31:27.160Z,5.30
2018-12-16T23:33:56.436Z,5.31
2018-12-16T23:36:26.868Z,5.31
2018-12-16T23:38:56.444Z,5.31
2018-12-16T23:41:30.614Z,5.33
2018-12-16T23:44:00.004Z,5.22
2018-12-16T23:46:35.414Z,5.27
2018-12-16T23:49:04.728Z,5.27
2018-12-16T23:51:34.278Z,5.28
2018-12-16T23:54:03.560Z,5.26
2018-12-16T23:56:32.616Z,5.29
2018-12-16T23:59:01.623Z,5.21
